sensor_id;sensor_type;location;lat;lon;timestamp;pressure;altitude;pressure_sealevel;temperature;humidity
47913;BME280;33676;51.006;17.180;2023-01-26T00:02:05;100974.40;;;3.06;100.00
47913;BME280;33676;51.006;17.180;2023-01-26T00:04:33;100969.05;;;3.05;100.00
47913;BME280;33676;51.006;17.180;2023-01-26T00:07:02;100968.52;;;3.06;100.00
47913;BME280;33676;51.006;17.180;2023-01-26T00:09:30;100963.84;;;3.06;100.00
47913;BME280;33676;51.006;17.180;2023-01-26T00:11:58;100964.20;;;3.06;100.00
47913;BME280;33676;51.006;17.180;2023-01-26T00:14:27;100964.20;;;3.06;100.00
47913;BME280;33676;51.006;17.180;2023-01-26T00:17:19;100961.79;;;3.06;100.00
47913;BME280;33676;51.006;17.180;2023-01-26T00:19:56;100960.39;;;3.06;100.00
47913;BME280;33676;51.006;17.180;2023-01-26T00:22:26;100958.34;;;3.06;100.00
47913;BME280;33676;51.006;17.180;2023-01-26T00:24:55;100957.61;;;3.06;100.00
47913;BME280;33676;51.006;17.180;2023-01-26T00:27:23;100959.47;;;3.08;100.00
47913;BME280;33676;51.006;17.180;2023-01-26T00:29:51;100962.70;;;3.09;100.00
47913;BME280;33676;51.006;17.180;2023-01-26T00:32:20;100961.82;;;3.10;100.00
47913;BME280;33676;51.006;17.180;2023-01-26T00:34:48;100956.23;;;3.11;100.00
47913;BME280;33676;51.006;17.180;2023-01-26T00:37:17;100954.25;;;3.13;100.00
47913;BME280;33676;51.006;17.180;2023-01-26T00:39:45;100951.13;;;3.13;100.00
47913;BME280;33676;51.006;17.180;2023-01-26T00:42:14;100952.82;;;3.14;100.00
47913;BME280;33676;51.006;17.180;2023-01-26T00:44:43;100947.45;;;3.14;100.00
47913;BME280;33676;51.006;17.180;2023-01-26T00:47:13;100949.70;;;3.14;100.00
47913;BME280;33676;51.006;17.180;2023-01-26T00:49:41;100951.44;;;3.14;100.00
47913;BME280;33676;51.006;17.180;2023-01-26T00:52:11;100955.07;;;3.14;100.00
47913;BME280;33676;51.006;17.180;2023-01-26T00:54:40;100956.42;;;3.15;100.00
47913;BME280;33676;51.006;17.180;2023-01-26T00:57:09;100954.14;;;3.16;100.00
47913;BME280;33676;51.006;17.180;2023-01-26T00:59:37;100952.79;;;3.15;100.00
47913;BME280;33676;51.006;17.180;2023-01-26T01:02:05;100950.26;;;3.13;100.00
47913;BME280;33676;51.006;17.180;2023-01-26T01:04:34;100950.60;;;3.13;100.00
47913;BME280;33676;51.006;17.180;2023-01-26T01:07:02;100955.10;;;3.13;100.00
47913;BME280;33676;51.006;17.180;2023-01-26T01:09:31;100952.83;;;3.14;100.00
47913;BME280;33676;51.006;17.180;2023-01-26T01:11:59;100949.88;;;3.14;100.00
47913;BME280;33676;51.006;17.180;2023-01-26T01:14:27;100950.52;;;3.15;100.00
47913;BME280;33676;51.006;17.180;2023-01-26T01:16:56;100948.45;;;3.15;100.00
47913;BME280;33676;51.006;17.180;2023-01-26T01:19:24;100949.66;;;3.15;100.00
47913;BME280;33676;51.006;17.180;2023-01-26T01:21:54;100941.08;;;3.14;100.00
47913;BME280;33676;51.006;17.180;2023-01-26T01:24:23;100945.84;;;3.12;100.00
47913;BME280;33676;51.006;17.180;2023-01-26T01:26:51;100942.73;;;3.12;100.00
47913;BME280;33676;51.006;17.180;2023-01-26T01:29:19;100947.48;;;3.10;100.00
47913;BME280;33676;51.006;17.180;2023-01-26T01:31:48;100941.98;;;3.09;100.00
47913;BME280;33676;51.006;17.180;2023-01-26T01:34:16;100944.27;;;3.08;100.00
47913;BME280;33676;51.006;17.180;2023-01-26T01:36:45;100943.23;;;3.08;100.00
47913;BME280;33676;51.006;17.180;2023-01-26T01:39:13;100942.39;;;3.07;100.00
47913;BME280;33676;51.006;17.180;2023-01-26T01:41:41;100943.81;;;3.06;100.00
47913;BME280;33676;51.006;17.180;2023-01-26T01:44:24;100940.11;;;3.03;100.00
47913;BME280;33676;51.006;17.180;2023-01-26T01:46:59;100934.48;;;3.02;100.00
47913;BME280;33676;51.006;17.180;2023-01-26T01:49:35;100934.16;;;3.01;100.00
47913;BME280;33676;51.006;17.180;2023-01-26T01:52:14;100925.42;;;2.99;100.00
47913;BME280;33676;51.006;17.180;2023-01-26T01:54:53;100927.04;;;2.97;100.00
47913;BME280;33676;51.006;17.180;2023-01-26T01:57:31;100923.65;;;2.95;100.00
47913;BME280;33676;51.006;17.180;2023-01-26T02:00:16;100918.85;;;2.94;100.00
47913;BME280;33676;51.006;17.180;2023-01-26T02:02:50;100912.87;;;2.93;100.00
47913;BME280;33676;51.006;17.180;2023-01-26T02:08:50;100902.96;;;2.89;100.00
47913;BME280;33676;51.006;17.180;2023-01-26T02:11:38;100895.41;;;2.88;100.00
47913;BME280;33676;51.006;17.180;2023-01-26T02:14:09;100899.92;;;2.88;100.00
47913;BME280;33676;51.006;17.180;2023-01-26T02:16:38;100892.17;;;2.87;100.00
47913;BME280;33676;51.006;17.180;2023-01-26T02:19:15;100891.81;;;2.87;100.00
47913;BME280;33676;51.006;17.180;2023-01-26T02:21:50;100884.77;;;2.86;100.00
47913;BME280;33676;51.006;17.180;2023-01-26T02:24:25;100883.28;;;2.85;100.00
47913;BME280;33676;51.006;17.180;2023-01-26T02:26:55;100877.89;;;2.81;100.00
47913;BME280;33676;51.006;17.180;2023-01-26T02:29:24;100874.14;;;2.80;100.00
47913;BME280;33676;51.006;17.180;2023-01-26T02:31:53;100874.70;;;2.78;100.00
47913;BME280;33676;51.006;17.180;2023-01-26T02:34:22;100867.57;;;2.75;100.00
47913;BME280;33676;51.006;17.180;2023-01-26T02:36:59;100864.23;;;2.72;100.00
47913;BME280;33676;51.006;17.180;2023-01-26T02:39:37;100860.18;;;2.70;100.00
47913;BME280;33676;51.006;17.180;2023-01-26T02:42:09;100848.67;;;2.68;100.00
47913;BME280;33676;51.006;17.180;2023-01-26T02:44:56;100851.91;;;2.69;100.00
47913;BME280;33676;51.006;17.180;2023-01-26T02:47:24;100850.11;;;2.71;100.00
47913;BME280;33676;51.006;17.180;2023-01-26T02:49:53;100844.23;;;2.72;100.00
47913;BME280;33676;51.006;17.180;2023-01-26T02:52:27;100842.27;;;2.73;100.00
47913;BME280;33676;51.006;17.180;2023-01-26T02:54:56;100839.85;;;2.73;100.00
47913;BME280;33676;51.006;17.180;2023-01-26T02:57:44;100837.48;;;2.72;100.00
47913;BME280;33676;51.006;17.180;2023-01-26T03:00:15;100840.48;;;2.70;100.00
47913;BME280;33676;51.006;17.180;2023-01-26T03:02:45;100836.80;;;2.67;100.00
47913;BME280;33676;51.006;17.180;2023-01-26T03:05:15;100833.02;;;2.66;100.00
47913;BME280;33676;51.006;17.180;2023-01-26T03:07:44;100832.66;;;2.67;100.00
47913;BME280;33676;51.006;17.180;2023-01-26T03:10:13;100828.52;;;2.67;100.00
47913;BME280;33676;51.006;17.180;2023-01-26T03:12:44;100824.54;;;2.67;100.00
47913;BME280;33676;51.006;17.180;2023-01-26T03:15:13;100824.25;;;2.65;100.00
47913;BME280;33676;51.006;17.180;2023-01-26T03:18:06;100824.99;;;2.64;100.00
47913;BME280;33676;51.006;17.180;2023-01-26T03:20:54;100819.38;;;2.62;100.00
47913;BME280;33676;51.006;17.180;2023-01-26T03:23:41;100817.71;;;2.60;100.00
47913;BME280;33676;51.006;17.180;2023-01-26T03:26:28;100816.41;;;2.59;100.00
47913;BME280;33676;51.006;17.180;2023-01-26T03:29:16;100811.46;;;2.57;100.00
47913;BME280;33676;51.006;17.180;2023-01-26T03:31:44;100808.23;;;2.56;100.00
47913;BME280;33676;51.006;17.180;2023-01-26T03:34:13;100805.61;;;2.57;100.00
47913;BME280;33676;51.006;17.180;2023-01-26T03:36:41;100805.27;;;2.57;100.00
47913;BME280;33676;51.006;17.180;2023-01-26T03:39:11;100803.60;;;2.55;100.00
47913;BME280;33676;51.006;17.180;2023-01-26T03:42:00;100799.00;;;2.54;100.00
47913;BME280;33676;51.006;17.180;2023-01-26T03:44:47;100794.55;;;2.52;100.00
47913;BME280;33676;51.006;17.180;2023-01-26T03:47:34;100794.39;;;2.52;100.00
47913;BME280;33676;51.006;17.180;2023-01-26T03:50:22;100793.06;;;2.51;100.00
47913;BME280;33676;51.006;17.180;2023-01-26T03:53:18;100791.45;;;2.48;100.00
47913;BME280;33676;51.006;17.180;2023-01-26T03:56:08;100790.33;;;2.45;100.00
47913;BME280;33676;51.006;17.180;2023-01-26T03:58:58;100786.95;;;2.43;100.00
47913;BME280;33676;51.006;17.180;2023-01-26T04:01:42;100784.42;;;2.42;100.00
47913;BME280;33676;51.006;17.180;2023-01-26T04:04:30;100788.67;;;2.38;100.00
47913;BME280;33676;51.006;17.180;2023-01-26T04:07:17;100789.01;;;2.34;100.00
47913;BME280;33676;51.006;17.180;2023-01-26T04:10:04;100787.02;;;2.32;100.00
47913;BME280;33676;51.006;17.180;2023-01-26T04:12:33;100787.23;;;2.31;100.00
47913;BME280;33676;51.006;17.180;2023-01-26T04:15:01;100784.46;;;2.31;100.00
47913;BME280;33676;51.006;17.180;2023-01-26T04:17:49;100782.08;;;2.30;100.00
47913;BME280;33676;51.006;17.180;2023-01-26T04:20:35;100784.34;;;2.29;100.00
47913;BME280;33676;51.006;17.180;2023-01-26T04:23:22;100784.32;;;2.30;100.00
47913;BME280;33676;51.006;17.180;2023-01-26T04:25:50;100780.20;;;2.29;100.00
47913;BME280;33676;51.006;17.180;2023-01-26T04:28:19;100779.35;;;2.29;100.00
47913;BME280;33676;51.006;17.180;2023-01-26T04:30:47;100775.17;;;2.30;100.00
47913;BME280;33676;51.006;17.180;2023-01-26T04:33:16;100768.98;;;2.30;100.00
47913;BME280;33676;51.006;17.180;2023-01-26T04:35:44;100770.02;;;2.29;100.00
47913;BME280;33676;51.006;17.180;2023-01-26T04:38:13;100768.48;;;2.29;100.00
47913;BME280;33676;51.006;17.180;2023-01-26T04:40:41;100768.79;;;2.30;100.00
47913;BME280;33676;51.006;17.180;2023-01-26T04:43:09;100761.02;;;2.30;100.00
47913;BME280;33676;51.006;17.180;2023-01-26T04:45:38;100756.98;;;2.32;100.00
47913;BME280;33676;51.006;17.180;2023-01-26T04:48:06;100754.02;;;2.33;100.00
47913;BME280;33676;51.006;17.180;2023-01-26T04:50:34;100749.61;;;2.36;100.00
47913;BME280;33676;51.006;17.180;2023-01-26T04:53:03;100745.60;;;2.37;100.00
47913;BME280;33676;51.006;17.180;2023-01-26T04:55:32;100745.55;;;2.38;100.00
47913;BME280;33676;51.006;17.180;2023-01-26T04:58:01;100741.90;;;2.39;100.00
47913;BME280;33676;51.006;17.180;2023-01-26T05:00:30;100743.58;;;2.41;100.00
47913;BME280;33676;51.006;17.180;2023-01-26T05:02:59;100746.48;;;2.41;100.00
47913;BME280;33676;51.006;17.180;2023-01-26T05:05:27;100744.59;;;2.41;100.00
47913;BME280;33676;51.006;17.180;2023-01-26T05:07:55;100748.41;;;2.40;100.00
47913;BME280;33676;51.006;17.180;2023-01-26T05:10:24;100744.13;;;2.40;100.00
47913;BME280;33676;51.006;17.180;2023-01-26T05:12:52;100743.06;;;2.40;100.00
47913;BME280;33676;51.006;17.180;2023-01-26T05:15:21;100747.72;;;2.40;100.00
47913;BME280;33676;51.006;17.180;2023-01-26T05:17:50;100745.70;;;2.39;100.00
47913;BME280;33676;51.006;17.180;2023-01-26T05:20:18;100744.52;;;2.38;100.00
47913;BME280;33676;51.006;17.180;2023-01-26T05:22:46;100742.50;;;2.37;100.00
47913;BME280;33676;51.006;17.180;2023-01-26T05:25:15;100739.27;;;2.36;100.00
47913;BME280;33676;51.006;17.180;2023-01-26T05:27:43;100743.77;;;2.35;100.00
47913;BME280;33676;51.006;17.180;2023-01-26T05:30:12;100742.86;;;2.36;100.00
47913;BME280;33676;51.006;17.180;2023-01-26T05:32:42;100743.19;;;2.37;100.00
47913;BME280;33676;51.006;17.180;2023-01-26T05:35:10;100736.52;;;2.36;100.00
47913;BME280;33676;51.006;17.180;2023-01-26T05:37:38;100738.96;;;2.35;100.00
47913;BME280;33676;51.006;17.180;2023-01-26T05:40:11;100739.13;;;2.35;100.00
47913;BME280;33676;51.006;17.180;2023-01-26T05:42:41;100739.16;;;2.34;100.00
47913;BME280;33676;51.006;17.180;2023-01-26T05:45:10;100736.10;;;2.32;100.00
47913;BME280;33676;51.006;17.180;2023-01-26T05:47:39;100739.06;;;2.32;100.00
47913;BME280;33676;51.006;17.180;2023-01-26T05:50:07;100740.59;;;2.32;100.00
47913;BME280;33676;51.006;17.180;2023-01-26T05:52:36;100738.04;;;2.31;100.00
47913;BME280;33676;51.006;17.180;2023-01-26T05:55:05;100734.66;;;2.29;100.00
47913;BME280;33676;51.006;17.180;2023-01-26T05:57:34;100737.96;;;2.28;100.00
47913;BME280;33676;51.006;17.180;2023-01-26T06:00:05;100736.13;;;2.27;100.00
47913;BME280;33676;51.006;17.180;2023-01-26T06:02:33;100731.51;;;2.26;100.00
47913;BME280;33676;51.006;17.180;2023-01-26T06:05:02;100733.96;;;2.25;100.00
47913;BME280;33676;51.006;17.180;2023-01-26T06:07:31;100730.88;;;2.24;100.00
47913;BME280;33676;51.006;17.180;2023-01-26T06:09:59;100732.44;;;2.24;100.00
47913;BME280;33676;51.006;17.180;2023-01-26T06:12:28;100729.67;;;2.24;100.00
47913;BME280;33676;51.006;17.180;2023-01-26T06:15:03;100726.12;;;2.22;100.00
47913;BME280;33676;51.006;17.180;2023-01-26T06:17:32;100727.19;;;2.21;100.00
47913;BME280;33676;51.006;17.180;2023-01-26T06:20:00;100724.48;;;2.20;100.00
47913;BME280;33676;51.006;17.180;2023-01-26T06:22:28;100723.32;;;2.19;100.00
47913;BME280;33676;51.006;17.180;2023-01-26T06:24:57;100721.66;;;2.17;100.00
47913;BME280;33676;51.006;17.180;2023-01-26T06:27:25;100723.80;;;2.15;100.00
47913;BME280;33676;51.006;17.180;2023-01-26T06:29:53;100720.11;;;2.12;100.00
47913;BME280;33676;51.006;17.180;2023-01-26T06:32:22;100720.51;;;2.11;100.00
47913;BME280;33676;51.006;17.180;2023-01-26T06:34:50;100720.54;;;2.10;100.00
47913;BME280;33676;51.006;17.180;2023-01-26T06:37:20;100721.91;;;2.10;100.00
47913;BME280;33676;51.006;17.180;2023-01-26T06:39:48;100722.46;;;2.09;100.00
47913;BME280;33676;51.006;17.180;2023-01-26T06:42:17;100725.04;;;2.10;100.00
47913;BME280;33676;51.006;17.180;2023-01-26T06:44:45;100723.16;;;2.09;100.00
47913;BME280;33676;51.006;17.180;2023-01-26T06:47:13;100725.29;;;2.08;100.00
47913;BME280;33676;51.006;17.180;2023-01-26T06:49:42;100723.98;;;2.06;100.00
47913;BME280;33676;51.006;17.180;2023-01-26T06:52:31;100725.03;;;2.06;100.00
47913;BME280;33676;51.006;17.180;2023-01-26T06:55:03;100724.89;;;2.05;100.00
47913;BME280;33676;51.006;17.180;2023-01-26T06:57:32;100721.60;;;2.05;100.00
47913;BME280;33676;51.006;17.180;2023-01-26T07:00:00;100724.52;;;2.06;100.00
47913;BME280;33676;51.006;17.180;2023-01-26T07:02:29;100726.77;;;2.05;100.00
47913;BME280;33676;51.006;17.180;2023-01-26T07:04:57;100730.70;;;2.06;100.00
47913;BME280;33676;51.006;17.180;2023-01-26T07:07:25;100729.94;;;2.08;100.00
47913;BME280;33676;51.006;17.180;2023-01-26T07:09:54;100727.99;;;2.09;100.00
47913;BME280;33676;51.006;17.180;2023-01-26T07:12:22;100729.85;;;2.10;100.00
47913;BME280;33676;51.006;17.180;2023-01-26T07:14:51;100729.10;;;2.11;100.00
47913;BME280;33676;51.006;17.180;2023-01-26T07:17:19;100728.14;;;2.14;100.00
47913;BME280;33676;51.006;17.180;2023-01-26T07:19:47;100732.48;;;2.18;100.00
47913;BME280;33676;51.006;17.180;2023-01-26T07:22:16;100730.86;;;2.20;100.00
47913;BME280;33676;51.006;17.180;2023-01-26T07:24:44;100730.99;;;2.21;100.00
47913;BME280;33676;51.006;17.180;2023-01-26T07:27:12;100727.13;;;2.23;100.00
47913;BME280;33676;51.006;17.180;2023-01-26T07:29:41;100726.35;;;2.26;100.00
47913;BME280;33676;51.006;17.180;2023-01-26T07:32:09;100727.63;;;2.28;100.00
47913;BME280;33676;51.006;17.180;2023-01-26T07:34:37;100726.20;;;2.30;100.00
47913;BME280;33676;51.006;17.180;2023-01-26T07:37:05;100719.20;;;2.32;100.00
47913;BME280;33676;51.006;17.180;2023-01-26T07:39:34;100722.48;;;2.37;100.00
47913;BME280;33676;51.006;17.180;2023-01-26T07:42:02;100724.60;;;2.40;100.00
47913;BME280;33676;51.006;17.180;2023-01-26T07:44:31;100725.66;;;2.45;100.00
47913;BME280;33676;51.006;17.180;2023-01-26T07:46:59;100721.99;;;2.50;100.00
47913;BME280;33676;51.006;17.180;2023-01-26T07:49:28;100718.77;;;2.54;100.00
47913;BME280;33676;51.006;17.180;2023-01-26T07:51:56;100720.09;;;2.55;100.00
47913;BME280;33676;51.006;17.180;2023-01-26T07:54:24;100716.44;;;2.56;100.00
47913;BME280;33676;51.006;17.180;2023-01-26T07:56:53;100711.77;;;2.56;100.00
47913;BME280;33676;51.006;17.180;2023-01-26T07:59:23;100717.11;;;2.56;100.00
47913;BME280;33676;51.006;17.180;2023-01-26T08:01:51;100718.98;;;2.57;100.00
47913;BME280;33676;51.006;17.180;2023-01-26T08:04:19;100717.48;;;2.60;100.00
47913;BME280;33676;51.006;17.180;2023-01-26T08:06:50;100715.60;;;2.63;100.00
47913;BME280;33676;51.006;17.180;2023-01-26T08:09:19;100719.09;;;2.67;100.00
47913;BME280;33676;51.006;17.180;2023-01-26T08:11:47;100719.35;;;2.69;100.00
47913;BME280;33676;51.006;17.180;2023-01-26T08:14:16;100713.63;;;2.70;100.00
47913;BME280;33676;51.006;17.180;2023-01-26T08:16:44;100711.29;;;2.72;100.00
47913;BME280;33676;51.006;17.180;2023-01-26T08:19:13;100713.00;;;2.73;100.00
47913;BME280;33676;51.006;17.180;2023-01-26T08:21:41;100711.42;;;2.74;99.99
47913;BME280;33676;51.006;17.180;2023-01-26T08:24:11;100711.62;;;2.77;100.00
47913;BME280;33676;51.006;17.180;2023-01-26T08:26:40;100710.13;;;2.80;100.00
47913;BME280;33676;51.006;17.180;2023-01-26T08:29:08;100714.48;;;2.83;100.00
47913;BME280;33676;51.006;17.180;2023-01-26T08:31:37;100713.85;;;2.86;100.00
47913;BME280;33676;51.006;17.180;2023-01-26T08:34:05;100715.55;;;2.87;99.91
47913;BME280;33676;51.006;17.180;2023-01-26T08:36:33;100716.75;;;2.87;99.91
47913;BME280;33676;51.006;17.180;2023-01-26T08:39:02;100721.55;;;2.88;99.53
47913;BME280;33676;51.006;17.180;2023-01-26T08:41:31;100719.95;;;2.89;99.53
47913;BME280;33676;51.006;17.180;2023-01-26T08:44:00;100720.70;;;2.88;99.24
47913;BME280;33676;51.006;17.180;2023-01-26T08:46:29;100712.96;;;2.87;99.05
47913;BME280;33676;51.006;17.180;2023-01-26T08:48:57;100710.27;;;2.85;98.80
47913;BME280;33676;51.006;17.180;2023-01-26T08:51:27;100714.63;;;2.84;99.00
47913;BME280;33676;51.006;17.180;2023-01-26T08:53:56;100715.69;;;2.83;98.90
47913;BME280;33676;51.006;17.180;2023-01-26T08:56:25;100715.33;;;2.84;98.78
47913;BME280;33676;51.006;17.180;2023-01-26T08:58:54;100722.30;;;2.82;98.68
47913;BME280;33676;51.006;17.180;2023-01-26T09:01:22;100720.88;;;2.83;98.77
47913;BME280;33676;51.006;17.180;2023-01-26T09:03:51;100723.08;;;2.84;98.70
47913;BME280;33676;51.006;17.180;2023-01-26T09:06:20;100723.57;;;2.85;98.63
47913;BME280;33676;51.006;17.180;2023-01-26T09:08:49;100723.55;;;2.86;98.65
47913;BME280;33676;51.006;17.180;2023-01-26T09:11:17;100730.75;;;2.87;98.60
47913;BME280;33676;51.006;17.180;2023-01-26T09:13:49;100728.09;;;2.89;98.58
47913;BME280;33676;51.006;17.180;2023-01-26T09:16:23;100732.69;;;2.91;98.67
47913;BME280;33676;51.006;17.180;2023-01-26T09:18:52;100729.95;;;2.94;98.65
47913;BME280;33676;51.006;17.180;2023-01-26T09:21:21;100723.59;;;2.98;98.65
47913;BME280;33676;51.006;17.180;2023-01-26T09:23:51;100721.57;;;3.01;98.51
47913;BME280;33676;51.006;17.180;2023-01-26T09:26:19;100724.62;;;3.02;98.17
47913;BME280;33676;51.006;17.180;2023-01-26T09:28:50;100718.73;;;3.07;98.59
47913;BME280;33676;51.006;17.180;2023-01-26T09:31:19;100717.89;;;3.11;98.20
47913;BME280;33676;51.006;17.180;2023-01-26T09:33:49;100714.30;;;3.13;97.91
47913;BME280;33676;51.006;17.180;2023-01-26T09:36:18;100717.25;;;3.17;97.83
47913;BME280;33676;51.006;17.180;2023-01-26T09:38:46;100711.98;;;3.24;98.07
47913;BME280;33676;51.006;17.180;2023-01-26T09:41:42;100710.52;;;3.30;98.11
47913;BME280;33676;51.006;17.180;2023-01-26T09:44:19;100702.52;;;3.36;97.76
47913;BME280;33676;51.006;17.180;2023-01-26T09:49:53;100699.77;;;3.48;97.97
47913;BME280;33676;51.006;17.180;2023-01-26T09:52:32;100700.32;;;3.55;97.91
47913;BME280;33676;51.006;17.180;2023-01-26T09:55:12;100700.83;;;3.63;98.08
47913;BME280;33676;51.006;17.180;2023-01-26T09:57:47;100696.94;;;3.69;97.84
47913;BME280;33676;51.006;17.180;2023-01-26T10:00:30;100690.25;;;3.72;97.33
47913;BME280;33676;51.006;17.180;2023-01-26T10:03:33;100691.33;;;3.75;96.97
47913;BME280;33676;51.006;17.180;2023-01-26T10:06:26;100691.43;;;3.77;96.66
47913;BME280;33676;51.006;17.180;2023-01-26T10:09:22;100693.70;;;3.80;96.79
47913;BME280;33676;51.006;17.180;2023-01-26T10:12:01;100687.81;;;3.84;96.76
47913;BME280;33676;51.006;17.180;2023-01-26T10:14:39;100684.02;;;3.88;96.85
47913;BME280;33676;51.006;17.180;2023-01-26T10:17:16;100684.86;;;3.96;97.02
47913;BME280;33676;51.006;17.180;2023-01-26T10:20:03;100684.45;;;4.02;96.76
47913;BME280;33676;51.006;17.180;2023-01-26T10:22:51;100673.08;;;4.09;96.84
47913;BME280;33676;51.006;17.180;2023-01-26T10:28:28;100669.30;;;4.23;96.52
47913;BME280;33676;51.006;17.180;2023-01-26T10:30:57;100670.85;;;4.26;96.29
47913;BME280;33676;51.006;17.180;2023-01-26T10:33:31;100670.28;;;4.32;96.32
47913;BME280;33676;51.006;17.180;2023-01-26T10:36:04;100664.34;;;4.33;96.05
47913;BME280;33676;51.006;17.180;2023-01-26T10:41:27;100666.80;;;4.28;95.45
47913;BME280;33676;51.006;17.180;2023-01-26T10:43:58;100672.02;;;4.24;95.09
47913;BME280;33676;51.006;17.180;2023-01-26T10:46:37;100671.13;;;4.20;95.16
47913;BME280;33676;51.006;17.180;2023-01-26T10:52:04;100671.86;;;4.09;94.75
47913;BME280;33676;51.006;17.180;2023-01-26T10:54:34;100679.01;;;4.04;94.79
47913;BME280;33676;51.006;17.180;2023-01-26T10:57:17;100680.92;;;3.99;94.62
47913;BME280;33676;51.006;17.180;2023-01-26T11:02:54;100670.84;;;3.96;94.48
47913;BME280;33676;51.006;17.180;2023-01-26T11:05:25;100670.43;;;3.97;94.82
47913;BME280;33676;51.006;17.180;2023-01-26T11:07:55;100668.52;;;3.98;94.85
47913;BME280;33676;51.006;17.180;2023-01-26T11:10:36;100666.24;;;3.99;94.86
47913;BME280;33676;51.006;17.180;2023-01-26T11:13:19;100670.13;;;4.02;94.87
47913;BME280;33676;51.006;17.180;2023-01-26T11:16:01;100672.41;;;4.01;94.48
47913;BME280;33676;51.006;17.180;2023-01-26T11:21:37;100662.70;;;3.96;94.50
47913;BME280;33676;51.006;17.180;2023-01-26T11:29:54;100643.54;;;3.88;94.21
47913;BME280;33676;51.006;17.180;2023-01-26T11:38:40;100635.06;;;3.76;93.70
47913;BME280;33676;51.006;17.180;2023-01-26T11:44:03;100633.70;;;3.72;93.94
47913;BME280;33676;51.006;17.180;2023-01-26T11:56:01;100622.80;;;3.64;93.65
47913;BME280;33676;51.006;17.180;2023-01-26T11:58:53;100618.00;;;3.63;93.58
47913;BME280;33676;51.006;17.180;2023-01-26T12:01:28;100617.52;;;3.63;93.48
47913;BME280;33676;51.006;17.180;2023-01-26T12:03:57;100615.48;;;3.62;93.53
47913;BME280;33676;51.006;17.180;2023-01-26T12:06:42;100614.94;;;3.63;93.52
47913;BME280;33676;51.006;17.180;2023-01-26T12:09:18;100617.23;;;3.62;93.48
47913;BME280;33676;51.006;17.180;2023-01-26T12:12:23;100606.83;;;3.62;93.55
47913;BME280;33676;51.006;17.180;2023-01-26T12:18:11;100598.45;;;3.61;93.30
47913;BME280;33676;51.006;17.180;2023-01-26T12:20:45;100602.33;;;3.59;93.10
47913;BME280;33676;51.006;17.180;2023-01-26T12:23:46;100602.25;;;3.57;93.22
47913;BME280;33676;51.006;17.180;2023-01-26T12:26:21;100604.56;;;3.55;93.02
47913;BME280;33676;51.006;17.180;2023-01-26T12:32:11;100595.90;;;3.56;93.49
47913;BME280;33676;51.006;17.180;2023-01-26T12:34:40;100591.70;;;3.53;93.23
47913;BME280;33676;51.006;17.180;2023-01-26T12:37:42;100592.96;;;3.52;93.19
47913;BME280;33676;51.006;17.180;2023-01-26T12:46:40;100589.83;;;3.48;93.47
47913;BME280;33676;51.006;17.180;2023-01-26T12:49:22;100585.06;;;3.47;93.39
47913;BME280;33676;51.006;17.180;2023-01-26T12:51:59;100587.58;;;3.45;93.33
47913;BME280;33676;51.006;17.180;2023-01-26T12:54:49;100587.17;;;3.42;93.17
47913;BME280;33676;51.006;17.180;2023-01-26T12:57:29;100585.37;;;3.40;93.02
47913;BME280;33676;51.006;17.180;2023-01-26T13:00:28;100583.89;;;3.38;93.18
47913;BME280;33676;51.006;17.180;2023-01-26T13:03:12;100586.33;;;3.38;93.17
47913;BME280;33676;51.006;17.180;2023-01-26T13:11:06;100575.34;;;3.40;93.31
47913;BME280;33676;51.006;17.180;2023-01-26T13:13:56;100575.77;;;3.42;93.43
47913;BME280;33676;51.006;17.180;2023-01-26T13:18:55;100573.20;;;3.46;93.45
47913;BME280;33676;51.006;17.180;2023-01-26T13:26:56;100564.94;;;3.48;93.51
47913;BME280;33676;51.006;17.180;2023-01-26T13:31:56;100570.29;;;3.49;93.46
47913;BME280;33676;51.006;17.180;2023-01-26T13:34:41;100571.22;;;3.47;93.30
47913;BME280;33676;51.006;17.180;2023-01-26T13:37:22;100574.30;;;3.48;93.50
47913;BME280;33676;51.006;17.180;2023-01-26T13:40:27;100575.00;;;3.48;93.53
47913;BME280;33676;51.006;17.180;2023-01-26T13:43:26;100574.44;;;3.49;93.31
47913;BME280;33676;51.006;17.180;2023-01-26T13:46:06;100575.45;;;3.49;93.38
47913;BME280;33676;51.006;17.180;2023-01-26T13:48:51;100577.39;;;3.48;93.27
47913;BME280;33676;51.006;17.180;2023-01-26T13:51:32;100579.52;;;3.47;93.18
47913;BME280;33676;51.006;17.180;2023-01-26T13:54:04;100575.10;;;3.46;92.95
47913;BME280;33676;51.006;17.180;2023-01-26T13:56:36;100573.22;;;3.45;93.08
47913;BME280;33676;51.006;17.180;2023-01-26T13:59:11;100573.73;;;3.45;93.09
47913;BME280;33676;51.006;17.180;2023-01-26T14:01:48;100568.39;;;3.45;93.17
47913;BME280;33676;51.006;17.180;2023-01-26T14:04:30;100567.52;;;3.45;93.11
47913;BME280;33676;51.006;17.180;2023-01-26T14:07:11;100562.70;;;3.44;93.19
47913;BME280;33676;51.006;17.180;2023-01-26T14:09:48;100557.08;;;3.43;93.01
47913;BME280;33676;51.006;17.180;2023-01-26T14:12:24;100555.39;;;3.42;93.04
47913;BME280;33676;51.006;17.180;2023-01-26T14:15:04;100553.92;;;3.40;92.84
47913;BME280;33676;51.006;17.180;2023-01-26T14:17:46;100557.27;;;3.38;92.73
47913;BME280;33676;51.006;17.180;2023-01-26T14:20:25;100557.70;;;3.37;92.65
47913;BME280;33676;51.006;17.180;2023-01-26T14:23:13;100560.83;;;3.36;92.67
47913;BME280;33676;51.006;17.180;2023-01-26T14:26:04;100558.35;;;3.38;92.72
47913;BME280;33676;51.006;17.180;2023-01-26T14:28:36;100555.96;;;3.36;92.67
47913;BME280;33676;51.006;17.180;2023-01-26T14:31:25;100555.67;;;3.36;92.76